Time;durP1;ratioP1;P1;durP2;ratioP2;P2;SDS_P1;SDS_P2;PMS_P1;PMS_P2;Temp;Humidity;BMP_temperature;BMP_pressure;BME280_temperature;BME280_humidity;BME280_pressure;Samples;Min_cycle;Max_cycle;Signal;HPM_P1;HPM_P2
2023/09/15 00:09:52;;;;;;;13.55;7.00;;;13.20;1.00;;;;;;10435866;28;20240;-77
2023/09/15 00:15:15;;;;;;;12.57;7.68;;;13.10;99.90;;;;;;10423768;28;20270;-77
2023/09/15 00:20:37;;;;;;;12.35;7.22;;;13.00;99.90;;;;;;10382979;28;20202;-77
2023/09/15 00:26:01;;;;;;;10.23;6.45;;;13.00;99.90;;;;;;10413999;28;20230;-77
2023/09/15 00:31:23;;;;;;;11.27;6.45;;;12.90;1.00;;;;;;10432709;28;20487;-77
2023/09/15 00:36:45;;;;;;;10.45;6.30;;;12.80;1.00;;;;;;10417264;28;20209;-78
2023/09/15 00:42:07;;;;;;;10.98;5.97;;;12.70;64.10;;;;;;10423272;28;20389;-77
2023/09/15 00:47:28;;;;;;;12.05;8.55;;;12.70;1.00;;;;;;10398642;28;20552;-77
2023/09/15 00:52:57;;;;;;;16.25;8.85;;;12.60;99.90;;;;;;10411400;28;20391;-77
2023/09/15 00:58:22;;;;;;;10.18;6.28;;;12.70;1.60;;;;;;10394803;28;20229;-78
2023/09/15 01:03:44;;;;;;;11.70;6.65;;;12.60;31.20;;;;;;10424175;28;20518;-77
2023/09/15 01:09:05;;;;;;;10.52;7.35;;;12.60;8.30;;;;;;10419442;28;20539;-77
2023/09/15 01:14:27;;;;;;;12.02;7.00;;;12.60;99.90;;;;;;10422813;28;20195;-77
2023/09/15 01:20:13;;;;;;;9.93;6.65;;;12.60;93.10;;;;;;10380635;28;20206;-77
2023/09/15 01:25:52;;;;;;;8.02;5.55;;;12.60;1.00;;;;;;10395596;28;20295;-77
2023/09/15 01:31:17;;;;;;;8.82;5.82;;;12.60;91.20;;;;;;10468618;28;20197;-78
2023/09/15 01:36:38;;;;;;;10.65;6.00;;;12.60;67.40;;;;;;10450313;28;20223;-78
2023/09/15 01:42:00;;;;;;;8.55;5.63;;;12.50;99.90;;;;;;10417800;28;20198;-77
2023/09/15 01:47:23;;;;;;;7.93;5.57;;;12.40;1.00;;;;;;10434135;28;20403;-79
2023/09/15 01:52:45;;;;;;;9.80;5.82;;;12.40;1.00;;;;;;10448670;28;20492;-78
2023/09/15 01:58:06;;;;;;;10.50;7.13;;;12.20;1.00;;;;;;10425310;28;20216;-79
2023/09/15 02:03:28;;;;;;;11.55;7.70;;;12.30;1.00;;;;;;10462738;28;20233;-79
2023/09/15 02:08:49;;;;;;;15.05;8.63;;;12.10;1.00;;;;;;10428922;28;20520;-78
2023/09/15 02:14:10;;;;;;;11.27;7.60;;;12.20;1.00;;;;;;10390198;28;20207;-79
2023/09/15 02:19:33;;;;;;;14.13;8.75;;;12.10;99.90;;;;;;10497090;28;20188;-78
2023/09/15 02:24:55;;;;;;;11.20;7.28;;;12.20;97.90;;;;;;10450372;28;20306;-78
2023/09/15 02:30:16;;;;;;;11.18;6.05;;;12.10;97.00;;;;;;10433553;28;20247;-77
2023/09/15 02:35:38;;;;;;;10.93;6.38;;;12.00;1.00;;;;;;10456624;28;20200;-77
2023/09/15 02:41:00;;;;;;;8.10;6.13;;;11.90;1.00;;;;;;10420774;28;20220;-78
2023/09/15 02:46:21;;;;;;;9.02;6.95;;;11.90;1.00;;;;;;10439648;28;20531;-78
2023/09/15 02:51:43;;;;;;;13.13;8.73;;;11.90;21.40;;;;;;10427048;28;20487;-78
2023/09/15 02:57:04;;;;;;;15.40;8.45;;;11.90;30.40;;;;;;10456730;28;20289;-78
2023/09/15 03:22:32;;;;;;;8.05;5.65;;;11.80;1.00;;;;;;10428508;28;20227;-78
2023/09/15 03:27:55;;;;;;;9.10;5.50;;;11.80;1.00;;;;;;10394049;28;20238;-78
2023/09/15 03:33:17;;;;;;;10.00;5.70;;;11.70;1.00;;;;;;10462718;28;20207;-76
2023/09/15 03:38:38;;;;;;;11.65;6.68;;;11.70;1.00;;;;;;10435002;28;20222;-78
2023/09/15 03:44:00;;;;;;;8.57;6.40;;;11.60;17.20;;;;;;10407465;28;20285;-77
2023/09/15 03:49:22;;;;;;;10.95;5.72;;;11.70;64.80;;;;;;10417333;28;20263;-77
2023/09/15 03:54:43;;;;;;;6.28;4.40;;;11.60;1.00;;;;;;10371347;28;20203;-77
2023/09/15 04:00:05;;;;;;;6.53;4.28;;;11.60;1.00;;;;;;10392217;28;20194;-77
2023/09/15 04:05:32;;;;;;;7.78;4.53;;;11.50;1.00;;;;;;10431901;28;20216;-77
2023/09/15 04:10:56;;;;;;;7.93;5.65;;;11.50;1.00;;;;;;10437620;28;20505;-77
2023/09/15 04:16:18;;;;;;;9.05;5.00;;;11.50;25.00;;;;;;10432131;28;20203;-77
2023/09/15 04:21:39;;;;;;;11.18;7.47;;;11.50;1.00;;;;;;10455662;28;20379;-77
2023/09/15 04:27:01;;;;;;;7.88;5.18;;;11.50;14.40;;;;;;10415602;28;20240;-77
2023/09/15 04:32:23;;;;;;;5.43;3.90;;;11.50;1.00;;;;;;10381870;28;20202;-77
2023/09/15 04:37:45;;;;;;;6.95;3.95;;;11.50;1.00;;;;;;10437665;28;20440;-77
2023/09/15 04:43:07;;;;;;;8.20;3.53;;;11.50;1.00;;;;;;10469400;28;20216;-77
2023/09/15 04:48:29;;;;;;;6.47;3.58;;;11.60;1.00;;;;;;10438705;28;20277;-78
2023/09/15 04:53:51;;;;;;;6.72;3.78;;;11.50;1.00;;;;;;10419447;28;20245;-78
2023/09/15 04:59:15;;;;;;;5.63;3.53;;;11.50;1.00;;;;;;10442935;28;20204;-78
2023/09/15 05:04:37;;;;;;;7.45;3.10;;;11.60;1.00;;;;;;10421236;28;20304;-78
2023/09/15 05:09:59;;;;;;;7.13;3.38;;;11.70;99.90;;;;;;10413408;28;20555;-78
2023/09/15 05:15:23;;;;;;;5.78;2.75;;;11.80;1.00;;;;;;10394939;28;20342;-78
2023/09/15 05:20:44;;;;;;;6.20;3.72;;;11.90;1.00;;;;;;10463731;28;20193;-78
2023/09/15 05:26:08;;;;;;;4.38;3.03;;;11.90;1.00;;;;;;10461760;28;20253;-78
2023/09/15 05:31:30;;;;;;;7.68;3.90;;;12.00;1.00;;;;;;10435180;28;20429;-79
2023/09/15 05:36:52;;;;;;;7.32;3.80;;;12.10;19.10;;;;;;10440203;28;20208;-78
2023/09/15 05:42:15;;;;;;;9.65;4.00;;;12.20;1.00;;;;;;10394000;28;20250;-79
2023/09/15 05:47:37;;;;;;;8.80;3.70;;;12.30;99.90;;;;;;10426239;28;20462;-78
2023/09/15 05:52:58;;;;;;;6.30;3.85;;;12.50;99.90;;;;;;10402973;28;20195;-79
2023/09/15 05:58:20;;;;;;;9.05;3.33;;;12.80;34.90;;;;;;10402283;28;20280;-78
2023/09/15 06:03:42;;;;;;;5.72;3.55;;;12.90;1.00;;;;;;10431400;28;20194;-78
2023/09/15 06:09:03;;;;;;;9.82;5.10;;;13.00;1.00;;;;;;10408189;28;20230;-78
2023/09/15 06:14:25;;;;;;;13.35;5.78;;;13.20;99.90;;;;;;10434413;28;20227;-78
2023/09/15 06:19:46;;;;;;;9.27;5.28;;;13.40;1.00;;;;;;10406318;28;20207;-77
2023/09/15 06:25:08;;;;;;;7.55;4.35;;;13.60;1.00;;;;;;10411616;28;20278;-78
2023/09/15 06:30:30;;;;;;;7.70;3.95;;;13.90;1.00;;;;;;10442671;28;20337;-78
2023/09/15 06:35:51;;;;;;;8.00;4.20;;;14.20;1.00;;;;;;10432994;28;20212;-78
2023/09/15 06:41:13;;;;;;;10.00;3.40;;;14.50;99.90;;;;;;10401046;28;20275;-78
2023/09/15 06:46:34;;;;;;;4.57;2.45;;;15.80;94.00;;;;;;10436697;28;20392;-78
2023/09/15 06:51:56;;;;;;;3.38;2.42;;;17.90;1.00;;;;;;10432681;28;20220;-79
2023/09/15 06:57:18;;;;;;;2.95;1.80;;;19.60;1.00;;;;;;10400523;28;20238;-79
2023/09/15 07:02:39;;;;;;;11.02;6.63;;;20.90;99.90;;;;;;10451579;28;20196;-78
2023/09/15 07:08:02;;;;;;;19.70;17.55;;;21.80;99.90;;;;;;10428563;28;20240;-77
2023/09/15 07:13:24;;;;;;;17.15;14.15;;;22.60;99.90;;;;;;10398688;28;20530;-79
2023/09/15 07:18:46;;;;;;;2.95;2.30;;;23.30;99.90;;;;;;10456370;28;20196;-79
2023/09/15 07:24:08;;;;;;;4.75;3.05;;;23.70;99.90;;;;;;10451167;28;20228;-78
2023/09/15 07:29:30;;;;;;;5.53;2.45;;;24.10;99.90;;;;;;10432043;28;20235;-79
2023/09/15 07:34:52;;;;;;;7.60;3.75;;;;;;;;;;10421169;28;20209;-81
2023/09/15 07:40:14;;;;;;;6.80;3.17;;;24.90;99.90;;;;;;10395176;28;20201;-79
2023/09/15 07:45:35;;;;;;;11.57;5.22;;;25.10;99.90;;;;;;10393249;28;20515;-79
2023/09/15 07:50:58;;;;;;;2.58;1.77;;;;;;;;;;10428998;28;20258;-80
2023/09/15 07:56:21;;;;;;;2.03;1.45;;;25.90;99.90;;;;;;10466254;28;20262;-78
2023/09/15 08:01:42;;;;;;;2.92;1.50;;;26.20;99.90;;;;;;10437771;28;20200;-81
2023/09/15 08:07:05;;;;;;;3.53;1.85;;;26.50;99.90;;;;;;10414932;28;20231;-79
2023/09/15 08:12:27;;;;;;;1.20;1.10;;;26.70;78.60;;;;;;10407306;28;20272;-82
2023/09/15 08:17:49;;;;;;;2.10;1.30;;;;;;;;;;10432556;28;20550;-79
2023/09/15 08:23:12;;;;;;;4.78;1.65;;;26.80;1.00;;;;;;10423177;28;20429;-84
2023/09/15 08:28:33;;;;;;;2.03;1.00;;;27.30;99.90;;;;;;10423918;28;20323;-79
2023/09/15 08:33:55;;;;;;;1.48;1.10;;;27.50;99.90;;;;;;10479020;28;20204;-79
2023/09/15 08:39:17;;;;;;;1.35;0.77;;;27.80;1.00;;;;;;10428693;28;20270;-83
2023/09/15 08:44:40;;;;;;;1.85;1.13;;;;;;;;;;10427553;28;20207;-93
2023/09/15 08:50:03;;;;;;;2.03;1.45;;;28.60;99.90;;;;;;10459309;28;20254;-84
2023/09/15 08:55:25;;;;;;;1.10;1.00;;;;;;;;;;10460762;28;20221;-86
2023/09/15 09:00:47;;;;;;;1.50;1.40;;;;;;;;;;10432834;28;20215;-86
2023/09/15 09:06:11;;;;;;;2.08;1.13;;;29.20;1.00;;;;;;10428719;28;20518;-80
2023/09/15 09:11:32;;;;;;;3.88;1.70;;;29.20;1.00;;;;;;10444611;28;20216;-80
2023/09/15 09:16:55;;;;;;;1.60;1.15;;;28.40;99.90;;;;;;10422064;28;20254;-79
2023/09/15 09:22:17;;;;;;;3.90;1.33;;;28.50;99.90;;;;;;10439707;28;20219;-80
2023/09/15 09:27:38;;;;;;;1.45;1.17;;;28.00;99.90;;;;;;10446477;28;20274;-79
2023/09/15 09:33:01;;;;;;;2.13;1.20;;;27.70;99.90;;;;;;10419476;28;20394;-79
2023/09/15 09:38:25;;;;;;;1.98;1.80;;;26.80;99.90;;;;;;10447030;28;20225;-86
2023/09/15 09:43:47;;;;;;;2.03;1.05;;;28.20;99.90;;;;;;10431918;28;20280;-85
2023/09/15 09:49:09;;;;;;;3.83;1.17;;;27.10;99.90;;;;;;10454578;28;20433;-80
2023/09/15 09:54:33;;;;;;;2.28;1.65;;;27.40;99.90;;;;;;10456932;28;20212;-80
2023/09/15 09:59:55;;;;;;;5.03;3.45;;;28.70;99.90;;;;;;10434239;28;20210;-79
2023/09/15 10:05:17;;;;;;;1.52;1.33;;;28.90;99.90;;;;;;10424820;28;20188;-87
2023/09/15 10:10:43;;;;;;;1.30;0.90;;;28.70;99.90;;;;;;10446513;28;20234;-80
2023/09/15 10:29:04;;;;;;;1.67;1.30;;;29.90;99.90;;;;;;10445467;28;20267;-79
2023/09/15 10:41:05;;;;;;;2.08;1.38;;;30.00;99.90;;;;;;10400900;28;20200;-82
2023/09/15 10:46:42;;;;;;;1.33;1.17;;;30.20;99.90;;;;;;10444051;28;20253;-77
2023/09/15 10:52:04;;;;;;;2.15;1.40;;;29.90;99.90;;;;;;10450804;28;20191;-78
2023/09/15 10:57:27;;;;;;;1.67;1.30;;;29.70;99.90;;;;;;10445956;28;20229;-78
2023/09/15 11:02:49;;;;;;;4.38;1.95;;;30.00;99.90;;;;;;10434445;28;20202;-83
2023/09/15 11:08:11;;;;;;;1.95;1.52;;;29.70;99.90;;;;;;10429543;28;20225;-78
2023/09/15 11:13:34;;;;;;;1.45;1.25;;;29.90;99.90;;;;;;10461605;28;20211;-78
2023/09/15 11:31:38;;;;;;;9.02;1.52;;;30.90;99.90;;;;;;10293329;28;20245;-82
2023/09/15 11:37:01;;;;;;;10.00;2.50;;;31.20;1.00;;;;;;10302173;28;20229;-82
2023/09/15 11:42:22;;;;;;;2.03;1.35;;;31.40;1.00;;;;;;10310293;28;20450;-82
2023/09/15 11:47:46;;;;;;;1.52;1.05;;;;;;;;;;10325783;28;20244;-83
2023/09/15 11:53:08;;;;;;;2.72;1.10;;;;;;;;;;10323475;28;20234;-79
2023/09/15 12:23:28;;;;;;;2.17;1.17;;;;;;;;;;9824662;30;20233;-78
2023/09/15 12:28:53;;;;;;;1.73;1.13;;;;;;;;;;9830683;30;20223;-75
2023/09/15 12:34:25;;;;;;;2.78;0.93;;;;;;;;;;9821560;30;20218;-80
2023/09/15 12:39:47;;;;;;;0.90;0.90;;;;;;;;;;9832840;30;20329;-78
2023/09/15 12:45:09;;;;;;;2.42;1.40;;;;;;;;;;9850056;29;20311;-77
2023/09/15 12:50:32;;;;;;;2.45;1.42;;;29.30;99.90;;;;;;9940005;29;20223;-77
2023/09/15 12:55:54;;;;;;;4.45;1.35;;;29.30;99.90;;;;;;10021214;29;20266;-79
2023/09/15 13:01:16;;;;;;;1.85;1.75;;;;;;;;;;10247596;29;20281;-80
2023/09/15 13:06:37;;;;;;;4.82;1.50;;;28.40;99.90;;;;;;10240170;29;20243;-80
2023/09/15 13:12:00;;;;;;;13.98;4.72;;;27.90;99.90;;;;;;10241953;29;20191;-78
2023/09/15 13:17:22;;;;;;;2.10;1.50;;;27.70;99.90;;;;;;10253221;29;20325;-82
2023/09/15 13:22:44;;;;;;;11.82;5.80;;;27.70;99.90;;;;;;10244872;29;20196;-83
2023/09/15 13:28:06;;;;;;;3.75;1.30;;;;;;;;;;10235926;29;20254;-80
2023/09/15 13:33:28;;;;;;;5.50;3.05;;;;;;;;;;10219773;29;20196;-80
2023/09/15 13:38:50;;;;;;;2.35;1.10;;;27.00;99.90;;;;;;10220270;29;20285;-79
2023/09/15 13:44:11;;;;;;;4.60;1.52;;;26.70;99.90;;;;;;10233426;29;20274;-82
2023/09/15 13:49:34;;;;;;;10.32;2.03;;;;;;;;;;10249148;29;20210;-82
2023/09/15 13:54:57;;;;;;;2.58;1.30;;;;;;;;;;10224511;29;20243;-79
2023/09/15 14:00:19;;;;;;;2.50;1.30;;;;;;;;;;10217009;29;20535;-77
2023/09/15 14:05:41;;;;;;;6.10;1.30;;;;;;;;;;10232360;29;20463;-80
2023/09/15 14:11:03;;;;;;;7.90;3.55;;;24.60;1.00;;;;;;10233135;29;20223;-79
2023/09/15 14:16:25;;;;;;;2.08;1.40;;;24.50;1.00;;;;;;10251870;28;20214;-78
2023/09/15 14:21:48;;;;;;;3.00;1.73;;;23.90;99.90;;;;;;10252820;28;20213;-79
2023/09/15 14:27:10;;;;;;;1.65;1.10;;;23.70;99.90;;;;;;10243026;29;20275;-79
2023/09/15 14:32:31;;;;;;;3.42;1.00;;;23.60;99.90;;;;;;10250963;28;20220;-78
2023/09/15 14:37:53;;;;;;;1.90;1.30;;;23.30;99.90;;;;;;10255969;29;20226;-79
2023/09/15 14:43:14;;;;;;;3.00;1.42;;;23.30;99.90;;;;;;10244167;29;20203;-79
2023/09/15 14:48:37;;;;;;;3.42;1.63;;;;;;;;;;10236218;29;20214;-79
2023/09/15 14:53:58;;;;;;;2.70;1.55;;;22.80;95.60;;;;;;10247082;29;20217;-78
2023/09/15 14:59:20;;;;;;;2.97;0.90;;;22.60;99.90;;;;;;10250863;29;20319;-85
2023/09/15 15:04:41;;;;;;;4.15;1.77;;;22.50;99.90;;;;;;10208259;29;20245;-78
2023/09/15 15:10:03;;;;;;;1.95;1.50;;;22.60;99.90;;;;;;10237974;29;20220;-77
2023/09/15 15:15:25;;;;;;;1.98;1.20;;;22.40;99.90;;;;;;10238421;29;20249;-77
2023/09/15 15:20:46;;;;;;;2.88;1.33;;;22.20;99.90;;;;;;10233828;29;20235;-75
2023/09/15 15:26:08;;;;;;;2.50;1.20;;;22.00;99.90;;;;;;10233916;29;20212;-80
2023/09/15 15:31:30;;;;;;;2.25;1.55;;;21.80;99.90;;;;;;10233085;29;20244;-79
2023/09/15 15:36:56;;;;;;;2.55;1.08;;;21.60;99.90;;;;;;10251842;29;20220;-77
2023/09/15 15:42:18;;;;;;;3.15;1.50;;;21.40;99.90;;;;;;10248856;29;20218;-78
2023/09/15 15:47:39;;;;;;;1.98;1.15;;;21.30;99.90;;;;;;10276572;29;20278;-77
2023/09/15 15:53:01;;;;;;;8.95;1.67;;;21.00;99.90;;;;;;10271385;29;20199;-77
2023/09/15 15:58:22;;;;;;;3.05;1.42;;;20.90;99.90;;;;;;10277048;29;20237;-78
2023/09/15 16:03:44;;;;;;;2.10;1.30;;;21.00;99.90;;;;;;10270375;29;20239;-77
2023/09/15 16:09:06;;;;;;;1.98;1.55;;;20.90;99.90;;;;;;10185039;29;20209;-79
2023/09/15 16:14:28;;;;;;;3.45;1.60;;;20.80;99.90;;;;;;10217259;29;20199;-78
2023/09/15 16:19:50;;;;;;;2.28;1.60;;;;;;;;;;10221599;29;20294;-78
2023/09/15 16:25:12;;;;;;;3.15;2.00;;;20.50;99.40;;;;;;10235444;29;20188;-76
2023/09/15 16:30:35;;;;;;;4.53;2.00;;;20.40;99.90;;;;;;10235014;29;20248;-77
2023/09/15 16:36:00;;;;;;;5.22;2.15;;;20.30;99.90;;;;;;10236103;29;20364;-77
2023/09/15 16:41:23;;;;;;;8.65;2.33;;;20.20;99.90;;;;;;10233046;29;20270;-77
2023/09/15 16:46:45;;;;;;;3.45;2.10;;;20.20;99.90;;;;;;10208925;29;20219;-77
2023/09/15 16:52:06;;;;;;;4.18;2.47;;;20.10;99.90;;;;;;10221429;29;20207;-79
2023/09/15 16:57:30;;;;;;;5.38;2.47;;;20.00;99.90;;;;;;10234225;29;20230;-76
2023/09/15 17:02:51;;;;;;;4.65;2.60;;;19.80;99.90;;;;;;10258404;29;20283;-79
2023/09/15 17:08:14;;;;;;;7.10;3.05;;;19.80;99.90;;;;;;10238179;29;20287;-78
2023/09/15 17:13:36;;;;;;;3.80;2.45;;;19.70;99.90;;;;;;10230987;29;20203;-78
2023/09/15 17:18:58;;;;;;;4.45;2.63;;;;;;;;;;10234759;29;20525;-78
2023/09/15 17:24:20;;;;;;;6.63;4.18;;;19.50;99.90;;;;;;10196731;29;20542;-78
2023/09/15 17:29:42;;;;;;;20.85;8.95;;;19.30;99.90;;;;;;10196039;29;20303;-79
2023/09/15 17:35:04;;;;;;;37.65;12.43;;;19.10;99.90;;;;;;10234362;29;20188;-78
2023/09/15 17:40:25;;;;;;;38.90;11.10;;;19.00;99.90;;;;;;10231514;29;20239;-78
2023/09/15 17:45:53;;;;;;;41.42;12.75;;;18.90;99.90;;;;;;10236232;29;20196;-78
2023/09/15 17:51:14;;;;;;;42.72;12.75;;;18.70;99.90;;;;;;10249753;29;20206;-77
2023/09/15 17:56:36;;;;;;;40.72;11.55;;;18.60;99.90;;;;;;10281882;29;20508;-78
2023/09/15 18:01:58;;;;;;;37.65;12.85;;;;;;;;;;10274788;29;20286;-77
2023/09/15 18:07:20;;;;;;;38.22;12.40;;;18.40;1.00;;;;;;10237605;29;20239;-77
2023/09/15 18:12:42;;;;;;;28.90;11.38;;;18.10;99.90;;;;;;10238751;29;20349;-77
2023/09/15 18:18:03;;;;;;;19.30;9.10;;;18.00;99.90;;;;;;10239164;29;20231;-79
2023/09/15 18:23:27;;;;;;;16.02;6.38;;;17.90;99.90;;;;;;10239456;29;20211;-76
2023/09/15 18:28:48;;;;;;;13.70;5.35;;;17.80;99.90;;;;;;10255651;29;20204;-77
2023/09/15 18:34:11;;;;;;;6.88;3.75;;;17.70;99.90;;;;;;10239538;29;20455;-77
2023/09/15 18:39:33;;;;;;;4.63;2.75;;;17.60;99.90;;;;;;10240598;29;20224;-78
2023/09/15 18:44:54;;;;;;;4.43;2.63;;;17.60;99.90;;;;;;10236533;29;20549;-77
2023/09/15 18:50:18;;;;;;;6.53;3.30;;;17.40;99.90;;;;;;10239150;29;20192;-78
2023/09/15 18:55:39;;;;;;;5.82;3.72;;;17.30;99.90;;;;;;10274096;28;20206;-77
2023/09/15 19:01:01;;;;;;;5.68;4.03;;;17.20;99.90;;;;;;10278573;29;20420;-76
2023/09/15 19:06:23;;;;;;;6.10;3.63;;;17.20;99.90;;;;;;10251111;29;20243;-76
2023/09/15 19:11:44;;;;;;;5.40;3.05;;;17.10;99.90;;;;;;10239482;29;20264;-76
2023/09/15 19:17:06;;;;;;;5.15;3.17;;;17.00;99.90;;;;;;10237543;29;20516;-76
2023/09/15 19:22:27;;;;;;;7.60;4.10;;;16.90;99.90;;;;;;10237291;29;20196;-77
2023/09/15 19:27:49;;;;;;;9.57;4.45;;;16.80;99.90;;;;;;10231465;29;20211;-77
2023/09/15 19:33:11;;;;;;;5.93;3.60;;;16.80;99.90;;;;;;10252147;29;20200;-77
2023/09/15 19:38:32;;;;;;;5.35;3.65;;;16.80;99.90;;;;;;10253534;29;20231;-79
2023/09/15 19:43:54;;;;;;;6.20;3.60;;;16.70;1.00;;;;;;10260068;29;20515;-78
2023/09/15 19:49:16;;;;;;;6.25;3.17;;;16.70;1.00;;;;;;10258752;29;20211;-78
2023/09/15 19:54:40;;;;;;;6.00;2.78;;;16.60;1.00;;;;;;10251623;29;20237;-79
2023/09/15 20:00:01;;;;;;;2.67;2.00;;;16.50;1.00;;;;;;10277409;29;20282;-79
2023/09/15 20:05:24;;;;;;;1.90;1.67;;;16.40;1.00;;;;;;10257768;29;20546;-78
2023/09/15 20:10:46;;;;;;;3.40;2.30;;;16.30;1.00;;;;;;10236951;29;20294;-78
2023/09/15 20:16:15;;;;;;;5.80;2.20;;;16.30;1.00;;;;;;10232407;29;20204;-78
2023/09/15 20:21:37;;;;;;;4.60;2.20;;;16.20;1.00;;;;;;10235272;29;20219;-78
2023/09/15 20:26:58;;;;;;;4.40;2.58;;;16.20;1.00;;;;;;10235405;29;20277;-79
2023/09/15 20:32:20;;;;;;;6.03;2.80;;;16.10;1.00;;;;;;10233695;29;20292;-77
2023/09/15 20:37:41;;;;;;;6.15;3.53;;;16.10;1.00;;;;;;10236158;29;20216;-77
2023/09/15 20:43:03;;;;;;;5.60;3.28;;;16.00;1.00;;;;;;10247844;29;20216;-77
2023/09/15 20:48:25;;;;;;;5.70;3.72;;;16.00;1.00;;;;;;10275605;29;20230;-77
2023/09/15 20:53:47;;;;;;;9.27;5.00;;;16.00;1.00;;;;;;10268498;29;20426;-77
2023/09/15 20:59:09;;;;;;;7.60;4.72;;;15.90;1.00;;;;;;10245625;29;20234;-76
2023/09/15 21:04:30;;;;;;;6.35;4.47;;;15.90;1.00;;;;;;10250700;29;20239;-80
2023/09/15 21:09:52;;;;;;;5.97;3.75;;;15.80;1.00;;;;;;10235159;29;20202;-77
2023/09/15 21:15:13;;;;;;;4.95;2.75;;;15.80;1.00;;;;;;10208657;29;20220;-77
2023/09/15 21:20:35;;;;;;;5.13;2.30;;;15.80;1.00;;;;;;10194771;29;20390;-79
2023/09/15 21:41:56;;;;;;;4.22;2.67;;;15.50;1.00;;;;;;10221428;29;20261;-78
2023/09/15 21:47:17;;;;;;;8.55;3.03;;;15.50;1.00;;;;;;10272874;29;20247;-78
2023/09/15 21:52:40;;;;;;;5.25;2.50;;;;;;;;;;10267446;29;20206;-79
2023/09/15 21:58:02;;;;;;;5.82;2.65;;;15.30;1.00;;;;;;10253893;29;20250;-78
2023/09/15 22:03:24;;;;;;;5.10;2.47;;;15.30;1.00;;;;;;10273918;29;20454;-78
2023/09/15 22:08:46;;;;;;;7.05;2.60;;;15.30;1.00;;;;;;10232595;29;20506;-78
2023/09/15 22:14:09;;;;;;;4.25;2.25;;;15.20;1.00;;;;;;10248828;29;20213;-77
2023/09/15 22:19:30;;;;;;;5.18;2.40;;;15.20;1.00;;;;;;10246640;29;20225;-79
2023/09/15 22:24:53;;;;;;;3.53;2.30;;;15.10;1.00;;;;;;10233900;29;20204;-79
2023/09/15 22:30:14;;;;;;;5.55;2.10;;;15.10;1.00;;;;;;10232410;29;20239;-78
2023/09/15 22:35:35;;;;;;;3.08;1.90;;;15.00;1.00;;;;;;10240890;29;20257;-79
2023/09/15 22:40:59;;;;;;;5.25;2.30;;;15.00;1.00;;;;;;10238276;29;20409;-78
2023/09/15 22:46:36;;;;;;;5.45;2.67;;;14.90;1.00;;;;;;10240504;29;20202;-79
2023/09/15 22:51:58;;;;;;;6.57;2.67;;;14.90;1.00;;;;;;10243432;29;20431;-77
2023/09/15 22:57:20;;;;;;;5.22;1.98;;;14.90;1.00;;;;;;10240169;29;20240;-78
2023/09/15 23:02:43;;;;;;;4.75;2.70;;;14.80;1.00;;;;;;10263514;29;20258;-78
2023/09/15 23:08:05;;;;;;;12.32;5.65;;;14.80;1.00;;;;;;10243805;29;20215;-78
2023/09/15 23:13:27;;;;;;;15.13;6.60;;;14.70;1.00;;;;;;10211905;29;20235;-78
2023/09/15 23:18:48;;;;;;;6.75;3.03;;;14.70;1.00;;;;;;10199878;29;20545;-79
2023/09/15 23:24:10;;;;;;;4.60;2.58;;;14.70;1.00;;;;;;10235809;29;20289;-79
2023/09/15 23:29:31;;;;;;;3.88;2.40;;;14.60;1.00;;;;;;10252443;29;20203;-78
2023/09/15 23:34:53;;;;;;;6.25;2.33;;;14.60;1.00;;;;;;10214030;29;20200;-78
2023/09/15 23:40:14;;;;;;;4.20;2.60;;;14.60;1.00;;;;;;10236314;29;20249;-78
2023/09/15 23:57:15;;;;;;;7.50;3.38;;;14.40;1.00;;;;;;10276205;29;20204;-79
